sensor_id;sensor_type;location;lat;lon;timestamp;temperature;humidity
54846;DHT22;53889;50.084;8.646;2023-06-10T00:02:23;23.00;74.20
54846;DHT22;53889;50.084;8.646;2023-06-10T00:04:50;23.00;74.30
54846;DHT22;53889;50.084;8.646;2023-06-10T00:07:18;23.00;74.40
54846;DHT22;53889;50.084;8.646;2023-06-10T00:09:44;22.90;75.00
54846;DHT22;53889;50.084;8.646;2023-06-10T00:12:11;22.90;75.40
54846;DHT22;53889;50.084;8.646;2023-06-10T00:14:39;22.80;75.30
54846;DHT22;53889;50.084;8.646;2023-06-10T00:17:06;22.80;75.60
54846;DHT22;53889;50.084;8.646;2023-06-10T00:19:36;22.70;76.10
54846;DHT22;53889;50.084;8.646;2023-06-10T00:22:06;22.70;75.90
54846;DHT22;53889;50.084;8.646;2023-06-10T00:24:34;22.80;75.80
54846;DHT22;53889;50.084;8.646;2023-06-10T00:27:00;22.70;75.80
54846;DHT22;53889;50.084;8.646;2023-06-10T00:29:27;22.60;76.00
54846;DHT22;53889;50.084;8.646;2023-06-10T00:31:54;22.70;76.20
54846;DHT22;53889;50.084;8.646;2023-06-10T00:34:23;22.50;76.30
54846;DHT22;53889;50.084;8.646;2023-06-10T00:36:52;22.50;76.50
54846;DHT22;53889;50.084;8.646;2023-06-10T00:39:19;22.50;76.50
54846;DHT22;53889;50.084;8.646;2023-06-10T00:41:46;22.50;76.40
54846;DHT22;53889;50.084;8.646;2023-06-10T00:44:12;22.40;76.90
54846;DHT22;53889;50.084;8.646;2023-06-10T00:46:39;22.40;77.90
54846;DHT22;53889;50.084;8.646;2023-06-10T00:49:07;22.10;78.00
54846;DHT22;53889;50.084;8.646;2023-06-10T00:51:34;22.20;78.00
54846;DHT22;53889;50.084;8.646;2023-06-10T00:54:03;22.30;77.30
54846;DHT22;53889;50.084;8.646;2023-06-10T00:56:30;22.30;77.20
54846;DHT22;53889;50.084;8.646;2023-06-10T00:58:58;22.20;77.00
54846;DHT22;53889;50.084;8.646;2023-06-10T01:01:25;22.10;77.20
54846;DHT22;53889;50.084;8.646;2023-06-10T01:03:52;22.10;77.10
54846;DHT22;53889;50.084;8.646;2023-06-10T01:06:31;22.10;77.20
54846;DHT22;53889;50.084;8.646;2023-06-10T01:09:13;22.10;78.80
54846;DHT22;53889;50.084;8.646;2023-06-10T01:11:52;21.70;80.30
54846;DHT22;53889;50.084;8.646;2023-06-10T01:14:21;21.70;80.50
54846;DHT22;53889;50.084;8.646;2023-06-10T01:16:49;21.70;80.20
54846;DHT22;53889;50.084;8.646;2023-06-10T01:19:18;21.70;79.30
54846;DHT22;53889;50.084;8.646;2023-06-10T01:21:46;21.70;78.30
54846;DHT22;53889;50.084;8.646;2023-06-10T01:24:14;21.80;78.20
54846;DHT22;53889;50.084;8.646;2023-06-10T01:26:45;21.80;78.00
54846;DHT22;53889;50.084;8.646;2023-06-10T01:29:16;21.90;77.70
54846;DHT22;53889;50.084;8.646;2023-06-10T01:31:49;21.90;77.80
54846;DHT22;53889;50.084;8.646;2023-06-10T01:34:21;22.00;77.70
54846;DHT22;53889;50.084;8.646;2023-06-10T01:36:52;21.90;77.70
54846;DHT22;53889;50.084;8.646;2023-06-10T01:39:23;21.90;77.70
54846;DHT22;53889;50.084;8.646;2023-06-10T01:41:51;21.80;77.90
54846;DHT22;53889;50.084;8.646;2023-06-10T01:44:19;21.80;77.90
54846;DHT22;53889;50.084;8.646;2023-06-10T01:46:46;21.70;78.30
54846;DHT22;53889;50.084;8.646;2023-06-10T01:49:13;21.70;78.40
54846;DHT22;53889;50.084;8.646;2023-06-10T01:51:42;21.60;78.20
54846;DHT22;53889;50.084;8.646;2023-06-10T01:54:10;21.60;78.60
54846;DHT22;53889;50.084;8.646;2023-06-10T01:56:37;21.60;78.70
54846;DHT22;53889;50.084;8.646;2023-06-10T01:59:03;21.50;78.40
54846;DHT22;53889;50.084;8.646;2023-06-10T02:01:30;21.50;78.30
54846;DHT22;53889;50.084;8.646;2023-06-10T02:03:59;21.50;78.60
54846;DHT22;53889;50.084;8.646;2023-06-10T02:06:26;21.50;78.50
54846;DHT22;53889;50.084;8.646;2023-06-10T02:08:52;21.50;78.40
54846;DHT22;53889;50.084;8.646;2023-06-10T02:11:21;21.50;78.20
54846;DHT22;53889;50.084;8.646;2023-06-10T02:13:48;21.60;78.20
54846;DHT22;53889;50.084;8.646;2023-06-10T02:16:15;21.50;77.90
54846;DHT22;53889;50.084;8.646;2023-06-10T02:18:43;21.60;77.90
54846;DHT22;53889;50.084;8.646;2023-06-10T02:21:10;21.50;78.00
54846;DHT22;53889;50.084;8.646;2023-06-10T02:23:37;21.50;77.70
54846;DHT22;53889;50.084;8.646;2023-06-10T02:26:04;21.50;77.70
54846;DHT22;53889;50.084;8.646;2023-06-10T02:28:32;21.50;77.70
54846;DHT22;53889;50.084;8.646;2023-06-10T02:30:59;21.50;77.70
54846;DHT22;53889;50.084;8.646;2023-06-10T02:33:26;21.40;77.70
54846;DHT22;53889;50.084;8.646;2023-06-10T02:35:53;21.40;78.00
54846;DHT22;53889;50.084;8.646;2023-06-10T02:38:21;21.40;78.10
54846;DHT22;53889;50.084;8.646;2023-06-10T02:40:49;21.30;78.30
54846;DHT22;53889;50.084;8.646;2023-06-10T02:43:16;21.30;78.50
54846;DHT22;53889;50.084;8.646;2023-06-10T02:45:45;21.20;78.80
54846;DHT22;53889;50.084;8.646;2023-06-10T02:48:13;21.10;79.10
54846;DHT22;53889;50.084;8.646;2023-06-10T02:50:40;21.10;79.30
54846;DHT22;53889;50.084;8.646;2023-06-10T02:53:15;21.40;79.20
54846;DHT22;53889;50.084;8.646;2023-06-10T02:55:47;21.10;79.10
54846;DHT22;53889;50.084;8.646;2023-06-10T02:58:17;20.90;81.50
54846;DHT22;53889;50.084;8.646;2023-06-10T03:00:45;20.70;81.90
54846;DHT22;53889;50.084;8.646;2023-06-10T03:03:13;20.50;82.60
54846;DHT22;53889;50.084;8.646;2023-06-10T03:05:49;20.30;82.90
54846;DHT22;53889;50.084;8.646;2023-06-10T03:08:17;20.20;83.10
54846;DHT22;53889;50.084;8.646;2023-06-10T03:10:44;20.00;83.70
54846;DHT22;53889;50.084;8.646;2023-06-10T03:13:15;20.10;84.10
54846;DHT22;53889;50.084;8.646;2023-06-10T03:15:42;19.90;84.40
54846;DHT22;53889;50.084;8.646;2023-06-10T03:18:14;19.90;84.90
54846;DHT22;53889;50.084;8.646;2023-06-10T03:20:43;19.80;85.10
54846;DHT22;53889;50.084;8.646;2023-06-10T03:23:10;19.80;85.50
54846;DHT22;53889;50.084;8.646;2023-06-10T03:25:37;19.70;85.50
54846;DHT22;53889;50.084;8.646;2023-06-10T03:28:04;19.70;85.60
54846;DHT22;53889;50.084;8.646;2023-06-10T03:30:31;20.00;85.80
54846;DHT22;53889;50.084;8.646;2023-06-10T03:32:58;19.70;85.60
54846;DHT22;53889;50.084;8.646;2023-06-10T03:35:29;19.80;85.50
54846;DHT22;53889;50.084;8.646;2023-06-10T03:37:55;19.80;84.30
54846;DHT22;53889;50.084;8.646;2023-06-10T03:40:23;20.00;84.20
54846;DHT22;53889;50.084;8.646;2023-06-10T03:42:49;20.10;83.20
54846;DHT22;53889;50.084;8.646;2023-06-10T03:45:17;20.20;82.00
54846;DHT22;53889;50.084;8.646;2023-06-10T03:47:46;20.30;81.70
54846;DHT22;53889;50.084;8.646;2023-06-10T03:50:14;20.30;81.30
54846;DHT22;53889;50.084;8.646;2023-06-10T03:52:44;20.40;81.10
54846;DHT22;53889;50.084;8.646;2023-06-10T03:55:13;20.40;80.90
54846;DHT22;53889;50.084;8.646;2023-06-10T03:57:44;20.40;80.80
54846;DHT22;53889;50.084;8.646;2023-06-10T04:00:12;20.50;80.70
54846;DHT22;53889;50.084;8.646;2023-06-10T04:02:41;21.10;81.00
54846;DHT22;53889;50.084;8.646;2023-06-10T04:05:16;20.60;80.40
54846;DHT22;53889;50.084;8.646;2023-06-10T04:07:44;20.60;80.30
54846;DHT22;53889;50.084;8.646;2023-06-10T04:10:11;20.60;79.90
54846;DHT22;53889;50.084;8.646;2023-06-10T04:12:38;20.60;80.00
54846;DHT22;53889;50.084;8.646;2023-06-10T04:15:06;20.70;80.10
54846;DHT22;53889;50.084;8.646;2023-06-10T04:17:34;20.70;79.70
54846;DHT22;53889;50.084;8.646;2023-06-10T04:20:01;20.80;79.70
54846;DHT22;53889;50.084;8.646;2023-06-10T04:22:29;20.90;79.60
54846;DHT22;53889;50.084;8.646;2023-06-10T04:24:58;21.10;79.40
54846;DHT22;53889;50.084;8.646;2023-06-10T04:27:25;21.20;78.90
54846;DHT22;53889;50.084;8.646;2023-06-10T04:29:52;21.30;78.40
54846;DHT22;53889;50.084;8.646;2023-06-10T04:32:19;21.40;78.10
54846;DHT22;53889;50.084;8.646;2023-06-10T04:34:46;21.60;77.50
54846;DHT22;53889;50.084;8.646;2023-06-10T04:37:13;21.70;77.10
54846;DHT22;53889;50.084;8.646;2023-06-10T04:39:40;21.90;75.80
54846;DHT22;53889;50.084;8.646;2023-06-10T04:42:09;22.10;75.50
54846;DHT22;53889;50.084;8.646;2023-06-10T04:44:36;22.20;75.40
54846;DHT22;53889;50.084;8.646;2023-06-10T04:47:04;22.40;75.00
54846;DHT22;53889;50.084;8.646;2023-06-10T04:49:33;22.60;74.60
54846;DHT22;53889;50.084;8.646;2023-06-10T04:52:02;22.80;74.40
54846;DHT22;53889;50.084;8.646;2023-06-10T04:54:32;23.20;74.00
54846;DHT22;53889;50.084;8.646;2023-06-10T04:56:59;23.60;72.10
54846;DHT22;53889;50.084;8.646;2023-06-10T04:59:27;24.10;71.20
54846;DHT22;53889;50.084;8.646;2023-06-10T05:01:55;24.20;70.50
54846;DHT22;53889;50.084;8.646;2023-06-10T05:04:22;24.60;69.90
54846;DHT22;53889;50.084;8.646;2023-06-10T05:06:49;25.00;68.60
54846;DHT22;53889;50.084;8.646;2023-06-10T05:09:15;25.30;67.20
54846;DHT22;53889;50.084;8.646;2023-06-10T05:11:42;25.80;65.70
54846;DHT22;53889;50.084;8.646;2023-06-10T05:14:09;26.00;64.70
54846;DHT22;53889;50.084;8.646;2023-06-10T05:16:37;26.30;63.80
54846;DHT22;53889;50.084;8.646;2023-06-10T05:19:04;26.40;63.70
54846;DHT22;53889;50.084;8.646;2023-06-10T05:21:30;26.40;63.30
54846;DHT22;53889;50.084;8.646;2023-06-10T05:23:57;26.50;63.30
54846;DHT22;53889;50.084;8.646;2023-06-10T05:26:24;27.00;62.60
54846;DHT22;53889;50.084;8.646;2023-06-10T05:28:51;27.20;62.20
54846;DHT22;53889;50.084;8.646;2023-06-10T05:31:18;27.60;61.70
54846;DHT22;53889;50.084;8.646;2023-06-10T05:33:46;28.00;61.30
54846;DHT22;53889;50.084;8.646;2023-06-10T05:36:13;28.10;60.10
54846;DHT22;53889;50.084;8.646;2023-06-10T05:38:39;28.10;60.20
54846;DHT22;53889;50.084;8.646;2023-06-10T05:41:06;28.40;59.90
54846;DHT22;53889;50.084;8.646;2023-06-10T05:43:33;28.60;59.60
54846;DHT22;53889;50.084;8.646;2023-06-10T05:46:00;28.60;59.90
54846;DHT22;53889;50.084;8.646;2023-06-10T05:48:27;28.60;59.00
54846;DHT22;53889;50.084;8.646;2023-06-10T05:50:55;28.50;59.80
54846;DHT22;53889;50.084;8.646;2023-06-10T05:53:21;28.50;58.50
54846;DHT22;53889;50.084;8.646;2023-06-10T05:55:48;28.50;58.60
54846;DHT22;53889;50.084;8.646;2023-06-10T05:58:15;28.60;58.60
54846;DHT22;53889;50.084;8.646;2023-06-10T06:00:41;28.50;58.10
54846;DHT22;53889;50.084;8.646;2023-06-10T06:03:08;28.40;58.90
54846;DHT22;53889;50.084;8.646;2023-06-10T06:05:36;28.60;58.30
54846;DHT22;53889;50.084;8.646;2023-06-10T06:08:05;29.00;58.20
54846;DHT22;53889;50.084;8.646;2023-06-10T06:10:32;28.80;57.70
54846;DHT22;53889;50.084;8.646;2023-06-10T06:12:59;28.40;58.50
54846;DHT22;53889;50.084;8.646;2023-06-10T06:15:27;28.30;58.50
54846;DHT22;53889;50.084;8.646;2023-06-10T06:17:54;28.70;58.10
54846;DHT22;53889;50.084;8.646;2023-06-10T06:20:21;29.00;57.60
54846;DHT22;53889;50.084;8.646;2023-06-10T06:22:48;29.30;57.60
54846;DHT22;53889;50.084;8.646;2023-06-10T06:25:16;29.50;56.70
54846;DHT22;53889;50.084;8.646;2023-06-10T06:27:43;29.80;56.30
54846;DHT22;53889;50.084;8.646;2023-06-10T06:30:11;29.30;57.20
54846;DHT22;53889;50.084;8.646;2023-06-10T06:32:37;29.40;56.50
54846;DHT22;53889;50.084;8.646;2023-06-10T06:35:05;29.50;56.50
54846;DHT22;53889;50.084;8.646;2023-06-10T06:37:36;29.60;56.60
54846;DHT22;53889;50.084;8.646;2023-06-10T06:40:16;29.40;56.20
54846;DHT22;53889;50.084;8.646;2023-06-10T06:42:43;29.10;56.60
54846;DHT22;53889;50.084;8.646;2023-06-10T06:45:15;29.30;57.00
54846;DHT22;53889;50.084;8.646;2023-06-10T06:47:42;29.30;56.70
54846;DHT22;53889;50.084;8.646;2023-06-10T06:50:09;29.30;57.20
54846;DHT22;53889;50.084;8.646;2023-06-10T06:52:36;29.20;56.50
54846;DHT22;53889;50.084;8.646;2023-06-10T06:55:03;29.30;57.40
54846;DHT22;53889;50.084;8.646;2023-06-10T06:57:32;29.70;57.20
54846;DHT22;53889;50.084;8.646;2023-06-10T06:59:58;29.80;56.40
54846;DHT22;53889;50.084;8.646;2023-06-10T07:02:25;30.10;56.40
54846;DHT22;53889;50.084;8.646;2023-06-10T07:04:51;30.10;56.50
54846;DHT22;53889;50.084;8.646;2023-06-10T07:07:21;30.60;55.90
54846;DHT22;53889;50.084;8.646;2023-06-10T07:09:47;31.10;55.20
54846;DHT22;53889;50.084;8.646;2023-06-10T07:12:14;31.30;55.00
54846;DHT22;53889;50.084;8.646;2023-06-10T07:14:42;31.00;55.40
54846;DHT22;53889;50.084;8.646;2023-06-10T07:17:09;31.20;54.40
54846;DHT22;53889;50.084;8.646;2023-06-10T07:19:36;31.10;54.90
54846;DHT22;53889;50.084;8.646;2023-06-10T07:22:03;31.10;55.00
54846;DHT22;53889;50.084;8.646;2023-06-10T07:24:30;31.10;55.50
54846;DHT22;53889;50.084;8.646;2023-06-10T07:26:56;31.50;54.90
54846;DHT22;53889;50.084;8.646;2023-06-10T07:29:23;32.20;54.40
54846;DHT22;53889;50.084;8.646;2023-06-10T07:31:51;32.50;53.70
54846;DHT22;53889;50.084;8.646;2023-06-10T07:34:18;32.90;53.70
54846;DHT22;53889;50.084;8.646;2023-06-10T07:36:45;33.10;52.80
54846;DHT22;53889;50.084;8.646;2023-06-10T07:39:12;32.70;53.10
54846;DHT22;53889;50.084;8.646;2023-06-10T07:41:39;32.60;53.40
54846;DHT22;53889;50.084;8.646;2023-06-10T07:44:05;32.70;53.10
54846;DHT22;53889;50.084;8.646;2023-06-10T07:46:32;32.50;53.60
54846;DHT22;53889;50.084;8.646;2023-06-10T07:49:00;32.70;53.10
54846;DHT22;53889;50.084;8.646;2023-06-10T07:51:27;33.00;53.20
54846;DHT22;53889;50.084;8.646;2023-06-10T07:53:54;33.20;53.00
54846;DHT22;53889;50.084;8.646;2023-06-10T07:56:20;33.50;52.40
54846;DHT22;53889;50.084;8.646;2023-06-10T07:58:47;33.40;52.10
54846;DHT22;53889;50.084;8.646;2023-06-10T08:01:14;33.20;52.40
54846;DHT22;53889;50.084;8.646;2023-06-10T08:03:41;33.00;52.60
54846;DHT22;53889;50.084;8.646;2023-06-10T08:06:09;33.50;53.10
54846;DHT22;53889;50.084;8.646;2023-06-10T08:08:37;34.20;52.00
54846;DHT22;53889;50.084;8.646;2023-06-10T08:11:07;34.70;51.10
54846;DHT22;53889;50.084;8.646;2023-06-10T08:13:34;34.80;51.00
54846;DHT22;53889;50.084;8.646;2023-06-10T08:16:00;34.50;50.90
54846;DHT22;53889;50.084;8.646;2023-06-10T08:18:27;34.30;51.20
54846;DHT22;53889;50.084;8.646;2023-06-10T08:20:54;34.00;51.60
54846;DHT22;53889;50.084;8.646;2023-06-10T08:23:22;33.30;52.50
54846;DHT22;53889;50.084;8.646;2023-06-10T08:25:49;33.70;52.60
54846;DHT22;53889;50.084;8.646;2023-06-10T08:28:16;34.10;51.90
54846;DHT22;53889;50.084;8.646;2023-06-10T08:30:43;34.00;52.00
54846;DHT22;53889;50.084;8.646;2023-06-10T08:33:10;34.10;52.20
54846;DHT22;53889;50.084;8.646;2023-06-10T08:35:36;34.00;52.50
54846;DHT22;53889;50.084;8.646;2023-06-10T08:38:03;33.70;52.90
54846;DHT22;53889;50.084;8.646;2023-06-10T08:40:32;33.80;52.70
54846;DHT22;53889;50.084;8.646;2023-06-10T08:43:03;33.90;52.50
54846;DHT22;53889;50.084;8.646;2023-06-10T08:45:32;34.00;51.90
54846;DHT22;53889;50.084;8.646;2023-06-10T08:48:03;34.20;51.90
54846;DHT22;53889;50.084;8.646;2023-06-10T08:50:33;34.40;52.30
54846;DHT22;53889;50.084;8.646;2023-06-10T08:53:00;34.30;51.90
54846;DHT22;53889;50.084;8.646;2023-06-10T08:55:32;34.40;51.70
54846;DHT22;53889;50.084;8.646;2023-06-10T08:57:59;35.00;51.50
54846;DHT22;53889;50.084;8.646;2023-06-10T09:00:26;34.30;51.90
54846;DHT22;53889;50.084;8.646;2023-06-10T09:02:54;34.90;52.50
54846;DHT22;53889;50.084;8.646;2023-06-10T09:05:21;34.80;51.90
54846;DHT22;53889;50.084;8.646;2023-06-10T09:07:48;35.20;51.10
54846;DHT22;53889;50.084;8.646;2023-06-10T09:10:15;35.40;50.20
54846;DHT22;53889;50.084;8.646;2023-06-10T09:12:44;35.40;50.20
54846;DHT22;53889;50.084;8.646;2023-06-10T09:15:11;35.60;50.60
54846;DHT22;53889;50.084;8.646;2023-06-10T09:17:39;35.30;50.40
54846;DHT22;53889;50.084;8.646;2023-06-10T09:20:07;35.20;50.30
54846;DHT22;53889;50.084;8.646;2023-06-10T09:22:34;35.10;50.40
54846;DHT22;53889;50.084;8.646;2023-06-10T09:25:06;35.30;50.80
54846;DHT22;53889;50.084;8.646;2023-06-10T09:27:45;35.30;50.80
54846;DHT22;53889;50.084;8.646;2023-06-10T09:30:24;35.90;50.50
54846;DHT22;53889;50.084;8.646;2023-06-10T09:32:53;36.00;50.10
54846;DHT22;53889;50.084;8.646;2023-06-10T09:35:21;36.10;50.90
54846;DHT22;53889;50.084;8.646;2023-06-10T09:37:51;36.30;49.90
54846;DHT22;53889;50.084;8.646;2023-06-10T09:40:17;36.00;50.00
54846;DHT22;53889;50.084;8.646;2023-06-10T09:42:45;36.80;49.80
54846;DHT22;53889;50.084;8.646;2023-06-10T09:45:19;37.30;49.00
54846;DHT22;53889;50.084;8.646;2023-06-10T09:47:46;37.50;49.00
54846;DHT22;53889;50.084;8.646;2023-06-10T09:50:13;37.00;49.20
54846;DHT22;53889;50.084;8.646;2023-06-10T09:52:39;36.50;49.40
54846;DHT22;53889;50.084;8.646;2023-06-10T09:55:09;36.40;49.90
54846;DHT22;53889;50.084;8.646;2023-06-10T09:57:36;36.40;49.50
54846;DHT22;53889;50.084;8.646;2023-06-10T10:00:07;36.30;49.60
54846;DHT22;53889;50.084;8.646;2023-06-10T10:02:45;36.40;49.70
54846;DHT22;53889;50.084;8.646;2023-06-10T10:05:13;36.70;49.40
54846;DHT22;53889;50.084;8.646;2023-06-10T10:07:40;37.10;49.10
54846;DHT22;53889;50.084;8.646;2023-06-10T10:10:07;37.40;48.40
54846;DHT22;53889;50.084;8.646;2023-06-10T10:12:35;37.50;48.10
54846;DHT22;53889;50.084;8.646;2023-06-10T10:15:07;37.40;48.30
54846;DHT22;53889;50.084;8.646;2023-06-10T10:17:34;37.60;47.90
54846;DHT22;53889;50.084;8.646;2023-06-10T10:20:05;37.60;47.50
54846;DHT22;53889;50.084;8.646;2023-06-10T10:22:39;37.40;47.50
54846;DHT22;53889;50.084;8.646;2023-06-10T10:25:10;37.70;47.60
54846;DHT22;53889;50.084;8.646;2023-06-10T10:27:43;37.30;48.30
54846;DHT22;53889;50.084;8.646;2023-06-10T10:30:12;37.10;48.20
54846;DHT22;53889;50.084;8.646;2023-06-10T10:32:54;36.80;48.00
54846;DHT22;53889;50.084;8.646;2023-06-10T10:35:23;36.30;47.90
54846;DHT22;53889;50.084;8.646;2023-06-10T10:37:52;36.00;47.90
54846;DHT22;53889;50.084;8.646;2023-06-10T10:40:19;36.50;48.30
54846;DHT22;53889;50.084;8.646;2023-06-10T10:42:47;37.00;47.70
54846;DHT22;53889;50.084;8.646;2023-06-10T10:45:16;37.60;47.80
54846;DHT22;53889;50.084;8.646;2023-06-10T10:47:45;37.40;46.40
54846;DHT22;53889;50.084;8.646;2023-06-10T10:50:16;37.10;46.60
54846;DHT22;53889;50.084;8.646;2023-06-10T10:52:51;36.40;47.20
54846;DHT22;53889;50.084;8.646;2023-06-10T10:55:19;36.10;47.60
54846;DHT22;53889;50.084;8.646;2023-06-10T10:57:53;35.60;47.10
54846;DHT22;53889;50.084;8.646;2023-06-10T11:00:27;35.70;47.90
54846;DHT22;53889;50.084;8.646;2023-06-10T11:02:58;35.50;48.60
54846;DHT22;53889;50.084;8.646;2023-06-10T11:05:32;36.60;48.10
54846;DHT22;53889;50.084;8.646;2023-06-10T11:08:01;36.30;46.80
54846;DHT22;53889;50.084;8.646;2023-06-10T11:10:29;36.40;46.60
54846;DHT22;53889;50.084;8.646;2023-06-10T11:12:57;36.40;46.10
54846;DHT22;53889;50.084;8.646;2023-06-10T11:15:26;36.20;47.10
54846;DHT22;53889;50.084;8.646;2023-06-10T11:18:10;36.60;45.90
54846;DHT22;53889;50.084;8.646;2023-06-10T11:20:58;36.20;46.40
54846;DHT22;53889;50.084;8.646;2023-06-10T11:23:33;36.30;46.90
54846;DHT22;53889;50.084;8.646;2023-06-10T11:26:13;37.00;46.30
54846;DHT22;53889;50.084;8.646;2023-06-10T11:28:40;36.80;45.60
54846;DHT22;53889;50.084;8.646;2023-06-10T11:31:09;35.40;46.70
54846;DHT22;53889;50.084;8.646;2023-06-10T11:33:44;34.40;48.10
54846;DHT22;53889;50.084;8.646;2023-06-10T11:36:12;33.90;48.10
54846;DHT22;53889;50.084;8.646;2023-06-10T11:38:40;32.80;49.50
54846;DHT22;53889;50.084;8.646;2023-06-10T11:41:07;32.50;50.00
54846;DHT22;53889;50.084;8.646;2023-06-10T11:43:34;32.00;50.50
54846;DHT22;53889;50.084;8.646;2023-06-10T11:46:01;32.20;50.60
54846;DHT22;53889;50.084;8.646;2023-06-10T11:48:29;33.30;50.40
54846;DHT22;53889;50.084;8.646;2023-06-10T11:50:56;34.60;48.70
54846;DHT22;53889;50.084;8.646;2023-06-10T11:53:23;35.60;47.70
54846;DHT22;53889;50.084;8.646;2023-06-10T11:55:51;36.30;46.80
54846;DHT22;53889;50.084;8.646;2023-06-10T11:58:19;37.00;45.60
54846;DHT22;53889;50.084;8.646;2023-06-10T12:00:47;36.90;45.70
54846;DHT22;53889;50.084;8.646;2023-06-10T12:03:14;37.00;44.50
54846;DHT22;53889;50.084;8.646;2023-06-10T12:05:54;36.20;44.00
54846;DHT22;53889;50.084;8.646;2023-06-10T12:08:21;36.00;44.50
54846;DHT22;53889;50.084;8.646;2023-06-10T12:10:48;35.50;44.70
54846;DHT22;53889;50.084;8.646;2023-06-10T12:13:14;35.30;45.10
54846;DHT22;53889;50.084;8.646;2023-06-10T12:15:43;35.40;46.50
54846;DHT22;53889;50.084;8.646;2023-06-10T12:18:16;35.50;47.40
54846;DHT22;53889;50.084;8.646;2023-06-10T12:20:44;35.80;47.20
54846;DHT22;53889;50.084;8.646;2023-06-10T12:23:11;35.60;47.00
54846;DHT22;53889;50.084;8.646;2023-06-10T12:25:39;35.30;47.90
54846;DHT22;53889;50.084;8.646;2023-06-10T12:28:10;35.60;46.30
54846;DHT22;53889;50.084;8.646;2023-06-10T12:30:36;35.40;46.80
54846;DHT22;53889;50.084;8.646;2023-06-10T12:33:03;35.00;47.60
54846;DHT22;53889;50.084;8.646;2023-06-10T12:35:30;34.40;47.30
54846;DHT22;53889;50.084;8.646;2023-06-10T12:37:59;34.00;47.60
54846;DHT22;53889;50.084;8.646;2023-06-10T12:40:28;33.40;48.40
54846;DHT22;53889;50.084;8.646;2023-06-10T12:42:55;32.90;49.50
54846;DHT22;53889;50.084;8.646;2023-06-10T12:45:28;32.40;50.50
54846;DHT22;53889;50.084;8.646;2023-06-10T12:48:04;32.10;50.40
54846;DHT22;53889;50.084;8.646;2023-06-10T12:50:32;32.20;50.70
54846;DHT22;53889;50.084;8.646;2023-06-10T12:53:00;32.20;50.80
54846;DHT22;53889;50.084;8.646;2023-06-10T12:55:27;32.20;49.90
54846;DHT22;53889;50.084;8.646;2023-06-10T12:57:54;32.00;50.30
54846;DHT22;53889;50.084;8.646;2023-06-10T13:00:21;32.00;50.60
54846;DHT22;53889;50.084;8.646;2023-06-10T13:02:51;32.20;49.90
54846;DHT22;53889;50.084;8.646;2023-06-10T13:05:18;32.70;48.90
54846;DHT22;53889;50.084;8.646;2023-06-10T13:07:46;33.50;48.40
54846;DHT22;53889;50.084;8.646;2023-06-10T13:10:14;33.80;47.80
54846;DHT22;53889;50.084;8.646;2023-06-10T13:12:41;33.50;48.60
54846;DHT22;53889;50.084;8.646;2023-06-10T13:15:09;33.40;48.50
54846;DHT22;53889;50.084;8.646;2023-06-10T13:17:35;33.70;48.30
54846;DHT22;53889;50.084;8.646;2023-06-10T13:20:02;34.20;47.80
54846;DHT22;53889;50.084;8.646;2023-06-10T13:22:30;34.60;47.70
54846;DHT22;53889;50.084;8.646;2023-06-10T13:24:58;35.10;47.10
54846;DHT22;53889;50.084;8.646;2023-06-10T13:27:26;34.80;46.70
54846;DHT22;53889;50.084;8.646;2023-06-10T13:29:53;34.30;46.40
54846;DHT22;53889;50.084;8.646;2023-06-10T13:32:19;33.70;46.90
54846;DHT22;53889;50.084;8.646;2023-06-10T13:34:46;33.30;47.60
54846;DHT22;53889;50.084;8.646;2023-06-10T13:37:14;33.10;47.00
54846;DHT22;53889;50.084;8.646;2023-06-10T13:39:42;32.80;47.20
54846;DHT22;53889;50.084;8.646;2023-06-10T13:42:09;32.60;46.60
54846;DHT22;53889;50.084;8.646;2023-06-10T13:44:37;32.30;47.40
54846;DHT22;53889;50.084;8.646;2023-06-10T13:47:04;32.30;47.00
54846;DHT22;53889;50.084;8.646;2023-06-10T13:49:32;32.20;47.30
54846;DHT22;53889;50.084;8.646;2023-06-10T13:51:58;32.10;48.60
54846;DHT22;53889;50.084;8.646;2023-06-10T13:54:25;32.00;49.70
54846;DHT22;53889;50.084;8.646;2023-06-10T13:56:52;31.90;50.20
54846;DHT22;53889;50.084;8.646;2023-06-10T13:59:19;31.80;50.20
54846;DHT22;53889;50.084;8.646;2023-06-10T14:01:47;31.50;50.50
54846;DHT22;53889;50.084;8.646;2023-06-10T14:04:14;31.50;50.50
54846;DHT22;53889;50.084;8.646;2023-06-10T14:06:41;31.40;49.90
54846;DHT22;53889;50.084;8.646;2023-06-10T14:09:07;31.50;50.10
54846;DHT22;53889;50.084;8.646;2023-06-10T14:11:34;31.50;49.60
54846;DHT22;53889;50.084;8.646;2023-06-10T14:14:01;31.40;49.60
54846;DHT22;53889;50.084;8.646;2023-06-10T14:16:28;31.20;49.90
54846;DHT22;53889;50.084;8.646;2023-06-10T14:18:56;31.00;49.70
54846;DHT22;53889;50.084;8.646;2023-06-10T14:21:23;30.80;50.00
54846;DHT22;53889;50.084;8.646;2023-06-10T14:23:50;30.80;50.30
54846;DHT22;53889;50.084;8.646;2023-06-10T14:26:18;31.10;50.40
54846;DHT22;53889;50.084;8.646;2023-06-10T14:28:44;31.30;50.30
54846;DHT22;53889;50.084;8.646;2023-06-10T14:31:11;31.30;50.40
54846;DHT22;53889;50.084;8.646;2023-06-10T14:33:38;31.40;50.90
54846;DHT22;53889;50.084;8.646;2023-06-10T14:36:06;31.40;50.90
54846;DHT22;53889;50.084;8.646;2023-06-10T14:38:33;31.50;51.20
54846;DHT22;53889;50.084;8.646;2023-06-10T14:41:00;31.30;50.70
54846;DHT22;53889;50.084;8.646;2023-06-10T14:43:26;31.30;49.90
54846;DHT22;53889;50.084;8.646;2023-06-10T14:45:53;31.30;50.40
54846;DHT22;53889;50.084;8.646;2023-06-10T14:48:21;31.50;50.00
54846;DHT22;53889;50.084;8.646;2023-06-10T14:50:48;31.70;49.80
54846;DHT22;53889;50.084;8.646;2023-06-10T14:53:17;31.60;49.80
54846;DHT22;53889;50.084;8.646;2023-06-10T14:55:44;31.70;49.10
54846;DHT22;53889;50.084;8.646;2023-06-10T14:58:11;31.80;49.00
54846;DHT22;53889;50.084;8.646;2023-06-10T15:00:38;31.60;48.60
54846;DHT22;53889;50.084;8.646;2023-06-10T15:03:04;31.30;48.80
54846;DHT22;53889;50.084;8.646;2023-06-10T15:05:31;31.30;50.00
54846;DHT22;53889;50.084;8.646;2023-06-10T15:07:58;31.40;50.10
54846;DHT22;53889;50.084;8.646;2023-06-10T15:10:26;31.50;50.20
54846;DHT22;53889;50.084;8.646;2023-06-10T15:12:53;31.50;50.20
54846;DHT22;53889;50.084;8.646;2023-06-10T15:15:22;31.50;51.10
54846;DHT22;53889;50.084;8.646;2023-06-10T15:17:49;30.60;51.40
54846;DHT22;53889;50.084;8.646;2023-06-10T15:20:16;30.60;51.80
54846;DHT22;53889;50.084;8.646;2023-06-10T15:22:42;30.50;52.10
54846;DHT22;53889;50.084;8.646;2023-06-10T15:25:09;30.40;52.40
54846;DHT22;53889;50.084;8.646;2023-06-10T15:27:37;30.30;52.70
54846;DHT22;53889;50.084;8.646;2023-06-10T15:30:05;30.30;53.00
54846;DHT22;53889;50.084;8.646;2023-06-10T15:32:32;30.10;52.70
54846;DHT22;53889;50.084;8.646;2023-06-10T15:34:59;30.10;52.70
54846;DHT22;53889;50.084;8.646;2023-06-10T15:37:26;29.90;52.60